sensor_id;sensor_type;location;lat;lon;timestamp;P1;durP1;ratioP1;P2;durP2;ratioP2
4839;SDS011;2434;48.486;7.964;2023-04-03T00:01:14;6.47;;;3.23;;
4839;SDS011;2434;48.486;7.964;2023-04-03T00:03:42;4.53;;;2.90;;
4839;SDS011;2434;48.486;7.964;2023-04-03T00:06:11;4.40;;;3.47;;
4839;SDS011;2434;48.486;7.964;2023-04-03T00:08:41;4.07;;;3.67;;
4839;SDS011;2434;48.486;7.964;2023-04-03T00:11:09;4.40;;;2.93;;
4839;SDS011;2434;48.486;7.964;2023-04-03T00:13:37;5.90;;;2.70;;
4839;SDS011;2434;48.486;7.964;2023-04-03T00:16:06;3.50;;;3.10;;
4839;SDS011;2434;48.486;7.964;2023-04-03T00:18:35;2.77;;;2.37;;
4839;SDS011;2434;48.486;7.964;2023-04-03T00:21:04;3.50;;;2.60;;
4839;SDS011;2434;48.486;7.964;2023-04-03T00:23:33;5.70;;;3.03;;
4839;SDS011;2434;48.486;7.964;2023-04-03T00:26:03;7.30;;;3.27;;
4839;SDS011;2434;48.486;7.964;2023-04-03T00:28:31;3.10;;;2.80;;
4839;SDS011;2434;48.486;7.964;2023-04-03T00:31:00;7.93;;;4.33;;
4839;SDS011;2434;48.486;7.964;2023-04-03T00:33:28;3.10;;;2.73;;
4839;SDS011;2434;48.486;7.964;2023-04-03T00:35:56;4.37;;;3.20;;
4839;SDS011;2434;48.486;7.964;2023-04-03T00:38:24;3.80;;;2.97;;
4839;SDS011;2434;48.486;7.964;2023-04-03T00:40:52;5.10;;;3.30;;
4839;SDS011;2434;48.486;7.964;2023-04-03T00:43:23;3.50;;;2.70;;
4839;SDS011;2434;48.486;7.964;2023-04-03T00:45:53;5.50;;;3.80;;
4839;SDS011;2434;48.486;7.964;2023-04-03T00:48:23;7.03;;;3.60;;
4839;SDS011;2434;48.486;7.964;2023-04-03T00:50:56;4.33;;;3.13;;
4839;SDS011;2434;48.486;7.964;2023-04-03T00:53:26;4.70;;;3.30;;
4839;SDS011;2434;48.486;7.964;2023-04-03T00:55:58;3.10;;;2.53;;
4839;SDS011;2434;48.486;7.964;2023-04-03T00:58:31;4.37;;;3.40;;
4839;SDS011;2434;48.486;7.964;2023-04-03T01:01:03;3.20;;;2.90;;
4839;SDS011;2434;48.486;7.964;2023-04-03T01:03:35;3.77;;;3.40;;
4839;SDS011;2434;48.486;7.964;2023-04-03T01:06:04;3.13;;;2.50;;
4839;SDS011;2434;48.486;7.964;2023-04-03T01:08:33;6.70;;;3.70;;
4839;SDS011;2434;48.486;7.964;2023-04-03T01:11:02;5.60;;;3.20;;
4839;SDS011;2434;48.486;7.964;2023-04-03T01:13:32;3.63;;;3.20;;
4839;SDS011;2434;48.486;7.964;2023-04-03T01:16:03;3.77;;;2.70;;
4839;SDS011;2434;48.486;7.964;2023-04-03T01:18:32;3.93;;;2.63;;
4839;SDS011;2434;48.486;7.964;2023-04-03T01:24:18;5.20;;;2.90;;
4839;SDS011;2434;48.486;7.964;2023-04-03T01:26:53;3.90;;;2.93;;
4839;SDS011;2434;48.486;7.964;2023-04-03T01:29:23;4.37;;;2.93;;
4839;SDS011;2434;48.486;7.964;2023-04-03T01:31:54;4.33;;;3.10;;
4839;SDS011;2434;48.486;7.964;2023-04-03T01:34:23;4.30;;;2.70;;
4839;SDS011;2434;48.486;7.964;2023-04-03T01:36:52;4.97;;;3.00;;
4839;SDS011;2434;48.486;7.964;2023-04-03T01:39:21;3.90;;;3.23;;
4839;SDS011;2434;48.486;7.964;2023-04-03T01:41:50;5.13;;;3.50;;
4839;SDS011;2434;48.486;7.964;2023-04-03T01:44:40;6.30;;;3.20;;
4839;SDS011;2434;48.486;7.964;2023-04-03T01:47:09;5.57;;;4.27;;
4839;SDS011;2434;48.486;7.964;2023-04-03T01:49:39;7.30;;;3.50;;
4839;SDS011;2434;48.486;7.964;2023-04-03T01:52:08;4.30;;;3.60;;
4839;SDS011;2434;48.486;7.964;2023-04-03T01:54:36;5.27;;;3.10;;
4839;SDS011;2434;48.486;7.964;2023-04-03T01:57:04;5.73;;;3.77;;
4839;SDS011;2434;48.486;7.964;2023-04-03T01:59:33;8.70;;;3.50;;
4839;SDS011;2434;48.486;7.964;2023-04-03T02:02:01;4.83;;;3.30;;
4839;SDS011;2434;48.486;7.964;2023-04-03T02:04:31;4.97;;;3.50;;
4839;SDS011;2434;48.486;7.964;2023-04-03T02:06:59;5.80;;;3.43;;
4839;SDS011;2434;48.486;7.964;2023-04-03T02:09:27;3.57;;;3.20;;
4839;SDS011;2434;48.486;7.964;2023-04-03T02:11:56;3.70;;;3.13;;
4839;SDS011;2434;48.486;7.964;2023-04-03T02:14:24;7.20;;;2.90;;
4839;SDS011;2434;48.486;7.964;2023-04-03T02:16:53;4.70;;;3.17;;
4839;SDS011;2434;48.486;7.964;2023-04-03T02:19:22;11.57;;;3.10;;
4839;SDS011;2434;48.486;7.964;2023-04-03T02:21:52;4.40;;;3.10;;
4839;SDS011;2434;48.486;7.964;2023-04-03T02:24:20;7.60;;;3.10;;
4839;SDS011;2434;48.486;7.964;2023-04-03T02:26:48;3.90;;;2.90;;
4839;SDS011;2434;48.486;7.964;2023-04-03T02:29:16;5.00;;;3.00;;
4839;SDS011;2434;48.486;7.964;2023-04-03T02:31:45;8.20;;;3.10;;
4839;SDS011;2434;48.486;7.964;2023-04-03T02:34:14;3.80;;;2.60;;
4839;SDS011;2434;48.486;7.964;2023-04-03T02:36:43;4.20;;;2.80;;
4839;SDS011;2434;48.486;7.964;2023-04-03T02:39:14;3.00;;;2.63;;
4839;SDS011;2434;48.486;7.964;2023-04-03T02:41:43;4.20;;;3.00;;
4839;SDS011;2434;48.486;7.964;2023-04-03T02:44:17;5.37;;;3.13;;
4839;SDS011;2434;48.486;7.964;2023-04-03T02:46:46;3.87;;;3.00;;
4839;SDS011;2434;48.486;7.964;2023-04-03T02:49:14;4.83;;;2.80;;
4839;SDS011;2434;48.486;7.964;2023-04-03T02:51:42;4.17;;;2.77;;
4839;SDS011;2434;48.486;7.964;2023-04-03T02:54:11;4.13;;;2.73;;
4839;SDS011;2434;48.486;7.964;2023-04-03T02:56:47;6.33;;;2.80;;
4839;SDS011;2434;48.486;7.964;2023-04-03T02:59:15;3.80;;;2.63;;
4839;SDS011;2434;48.486;7.964;2023-04-03T03:01:43;3.57;;;2.90;;
4839;SDS011;2434;48.486;7.964;2023-04-03T03:04:12;3.20;;;2.90;;
4839;SDS011;2434;48.486;7.964;2023-04-03T03:06:40;3.33;;;3.03;;
4839;SDS011;2434;48.486;7.964;2023-04-03T03:09:10;4.63;;;2.80;;
4839;SDS011;2434;48.486;7.964;2023-04-03T03:11:41;6.43;;;2.90;;
4839;SDS011;2434;48.486;7.964;2023-04-03T03:14:11;3.87;;;3.10;;
4839;SDS011;2434;48.486;7.964;2023-04-03T03:16:39;3.90;;;2.97;;
4839;SDS011;2434;48.486;7.964;2023-04-03T03:19:07;3.50;;;2.83;;
4839;SDS011;2434;48.486;7.964;2023-04-03T03:21:36;3.67;;;2.97;;
4839;SDS011;2434;48.486;7.964;2023-04-03T03:24:05;3.57;;;3.23;;
4839;SDS011;2434;48.486;7.964;2023-04-03T03:26:33;4.30;;;3.37;;
4839;SDS011;2434;48.486;7.964;2023-04-03T03:29:03;7.67;;;3.33;;
4839;SDS011;2434;48.486;7.964;2023-04-03T03:31:33;3.93;;;3.10;;
4839;SDS011;2434;48.486;7.964;2023-04-03T03:34:01;3.77;;;2.47;;
4839;SDS011;2434;48.486;7.964;2023-04-03T03:36:29;4.87;;;3.30;;
4839;SDS011;2434;48.486;7.964;2023-04-03T03:38:58;4.07;;;2.97;;
4839;SDS011;2434;48.486;7.964;2023-04-03T03:41:26;4.03;;;3.10;;
4839;SDS011;2434;48.486;7.964;2023-04-03T03:43:54;6.80;;;2.93;;
4839;SDS011;2434;48.486;7.964;2023-04-03T03:46:23;4.10;;;3.40;;
4839;SDS011;2434;48.486;7.964;2023-04-03T03:48:53;3.83;;;2.90;;
4839;SDS011;2434;48.486;7.964;2023-04-03T03:51:22;4.87;;;3.03;;
4839;SDS011;2434;48.486;7.964;2023-04-03T03:53:50;4.90;;;2.93;;
4839;SDS011;2434;48.486;7.964;2023-04-03T03:56:19;6.30;;;3.40;;
4839;SDS011;2434;48.486;7.964;2023-04-03T03:58:47;4.70;;;3.27;;
4839;SDS011;2434;48.486;7.964;2023-04-03T04:01:16;5.70;;;3.13;;
4839;SDS011;2434;48.486;7.964;2023-04-03T04:03:47;5.90;;;3.27;;
4839;SDS011;2434;48.486;7.964;2023-04-03T04:06:21;3.07;;;2.70;;
4839;SDS011;2434;48.486;7.964;2023-04-03T04:08:50;10.80;;;3.77;;
4839;SDS011;2434;48.486;7.964;2023-04-03T04:11:18;5.20;;;3.17;;
4839;SDS011;2434;48.486;7.964;2023-04-03T04:13:48;3.10;;;2.80;;
4839;SDS011;2434;48.486;7.964;2023-04-03T04:16:19;5.13;;;2.80;;
4839;SDS011;2434;48.486;7.964;2023-04-03T04:18:47;4.67;;;3.10;;
4839;SDS011;2434;48.486;7.964;2023-04-03T04:21:17;3.33;;;2.80;;
4839;SDS011;2434;48.486;7.964;2023-04-03T04:23:48;5.13;;;3.17;;
4839;SDS011;2434;48.486;7.964;2023-04-03T04:26:16;3.23;;;2.93;;
4839;SDS011;2434;48.486;7.964;2023-04-03T04:28:44;4.70;;;3.17;;
4839;SDS011;2434;48.486;7.964;2023-04-03T04:31:13;4.57;;;3.40;;
4839;SDS011;2434;48.486;7.964;2023-04-03T04:33:41;2.87;;;2.57;;
4839;SDS011;2434;48.486;7.964;2023-04-03T04:36:12;4.53;;;3.43;;
4839;SDS011;2434;48.486;7.964;2023-04-03T04:38:43;6.00;;;3.20;;
4839;SDS011;2434;48.486;7.964;2023-04-03T04:41:13;4.10;;;3.00;;
4839;SDS011;2434;48.486;7.964;2023-04-03T04:43:43;3.53;;;2.87;;
4839;SDS011;2434;48.486;7.964;2023-04-03T04:46:11;4.33;;;3.03;;
4839;SDS011;2434;48.486;7.964;2023-04-03T04:48:45;7.93;;;3.10;;
4839;SDS011;2434;48.486;7.964;2023-04-03T04:51:16;7.60;;;3.93;;
4839;SDS011;2434;48.486;7.964;2023-04-03T04:53:45;6.30;;;3.33;;
4839;SDS011;2434;48.486;7.964;2023-04-03T04:56:17;5.80;;;3.47;;
4839;SDS011;2434;48.486;7.964;2023-04-03T04:58:46;3.90;;;3.50;;
4839;SDS011;2434;48.486;7.964;2023-04-03T05:01:16;3.93;;;2.87;;
4839;SDS011;2434;48.486;7.964;2023-04-03T05:03:53;4.30;;;3.13;;
4839;SDS011;2434;48.486;7.964;2023-04-03T05:06:22;4.50;;;3.03;;
4839;SDS011;2434;48.486;7.964;2023-04-03T05:08:52;3.00;;;2.70;;
4839;SDS011;2434;48.486;7.964;2023-04-03T05:11:23;5.73;;;3.20;;
4839;SDS011;2434;48.486;7.964;2023-04-03T05:13:52;3.90;;;2.90;;
4839;SDS011;2434;48.486;7.964;2023-04-03T05:16:22;6.70;;;3.80;;
4839;SDS011;2434;48.486;7.964;2023-04-03T05:18:50;5.30;;;3.67;;
4839;SDS011;2434;48.486;7.964;2023-04-03T05:21:21;4.33;;;2.40;;
4839;SDS011;2434;48.486;7.964;2023-04-03T05:23:51;6.23;;;3.93;;
4839;SDS011;2434;48.486;7.964;2023-04-03T05:26:20;3.43;;;3.07;;
4839;SDS011;2434;48.486;7.964;2023-04-03T05:28:50;4.50;;;3.23;;
4839;SDS011;2434;48.486;7.964;2023-04-03T05:31:19;4.30;;;3.07;;
4839;SDS011;2434;48.486;7.964;2023-04-03T05:33:48;5.60;;;3.30;;
4839;SDS011;2434;48.486;7.964;2023-04-03T05:36:17;3.60;;;3.07;;
4839;SDS011;2434;48.486;7.964;2023-04-03T05:38:50;4.40;;;3.43;;
4839;SDS011;2434;48.486;7.964;2023-04-03T05:41:19;4.70;;;3.60;;
4839;SDS011;2434;48.486;7.964;2023-04-03T05:43:48;4.73;;;3.70;;
4839;SDS011;2434;48.486;7.964;2023-04-03T05:46:20;9.67;;;3.20;;
4839;SDS011;2434;48.486;7.964;2023-04-03T05:48:52;4.97;;;3.87;;
4839;SDS011;2434;48.486;7.964;2023-04-03T05:51:24;6.17;;;3.87;;
4839;SDS011;2434;48.486;7.964;2023-04-03T05:54:01;8.13;;;4.37;;
4839;SDS011;2434;48.486;7.964;2023-04-03T05:56:34;5.60;;;3.87;;
4839;SDS011;2434;48.486;7.964;2023-04-03T05:59:05;8.30;;;4.50;;
4839;SDS011;2434;48.486;7.964;2023-04-03T06:01:33;6.60;;;3.87;;
4839;SDS011;2434;48.486;7.964;2023-04-03T06:04:02;5.80;;;4.20;;
4839;SDS011;2434;48.486;7.964;2023-04-03T06:06:42;6.07;;;4.20;;
4839;SDS011;2434;48.486;7.964;2023-04-03T06:09:11;6.27;;;3.93;;
4839;SDS011;2434;48.486;7.964;2023-04-03T06:11:40;6.10;;;3.50;;
4839;SDS011;2434;48.486;7.964;2023-04-03T06:14:10;5.40;;;3.70;;
4839;SDS011;2434;48.486;7.964;2023-04-03T06:16:38;6.13;;;4.20;;
4839;SDS011;2434;48.486;7.964;2023-04-03T06:19:07;4.20;;;2.87;;
4839;SDS011;2434;48.486;7.964;2023-04-03T06:21:38;7.77;;;4.17;;
4839;SDS011;2434;48.486;7.964;2023-04-03T06:24:11;4.70;;;3.17;;
4839;SDS011;2434;48.486;7.964;2023-04-03T06:26:42;5.20;;;3.23;;
4839;SDS011;2434;48.486;7.964;2023-04-03T06:29:11;4.07;;;3.13;;
4839;SDS011;2434;48.486;7.964;2023-04-03T06:31:39;4.03;;;3.43;;
4839;SDS011;2434;48.486;7.964;2023-04-03T06:34:08;3.80;;;3.23;;
4839;SDS011;2434;48.486;7.964;2023-04-03T06:36:39;7.23;;;4.07;;
4839;SDS011;2434;48.486;7.964;2023-04-03T06:39:08;2.90;;;2.40;;
4839;SDS011;2434;48.486;7.964;2023-04-03T06:41:39;3.87;;;3.00;;
4839;SDS011;2434;48.486;7.964;2023-04-03T06:44:07;4.80;;;2.90;;
4839;SDS011;2434;48.486;7.964;2023-04-03T06:46:39;3.57;;;2.70;;
4839;SDS011;2434;48.486;7.964;2023-04-03T06:49:07;4.77;;;3.10;;
4839;SDS011;2434;48.486;7.964;2023-04-03T06:51:36;3.70;;;3.27;;
4839;SDS011;2434;48.486;7.964;2023-04-03T06:54:04;3.70;;;2.67;;
4839;SDS011;2434;48.486;7.964;2023-04-03T06:56:34;5.70;;;3.23;;
4839;SDS011;2434;48.486;7.964;2023-04-03T06:59:03;3.97;;;2.70;;
4839;SDS011;2434;48.486;7.964;2023-04-03T07:01:31;4.20;;;3.13;;
4839;SDS011;2434;48.486;7.964;2023-04-03T07:04:01;2.83;;;2.57;;
4839;SDS011;2434;48.486;7.964;2023-04-03T07:06:29;7.63;;;2.80;;
4839;SDS011;2434;48.486;7.964;2023-04-03T07:08:58;3.80;;;2.87;;
4839;SDS011;2434;48.486;7.964;2023-04-03T07:11:27;2.60;;;2.40;;
4839;SDS011;2434;48.486;7.964;2023-04-03T07:13:55;3.07;;;2.77;;
4839;SDS011;2434;48.486;7.964;2023-04-03T07:16:24;4.63;;;3.00;;
4839;SDS011;2434;48.486;7.964;2023-04-03T07:18:52;3.47;;;2.33;;
4839;SDS011;2434;48.486;7.964;2023-04-03T07:21:21;4.80;;;3.00;;
4839;SDS011;2434;48.486;7.964;2023-04-03T07:23:49;3.10;;;2.40;;
4839;SDS011;2434;48.486;7.964;2023-04-03T07:26:17;3.93;;;2.83;;
4839;SDS011;2434;48.486;7.964;2023-04-03T07:28:47;4.60;;;3.00;;
4839;SDS011;2434;48.486;7.964;2023-04-03T07:31:16;3.07;;;2.67;;
4839;SDS011;2434;48.486;7.964;2023-04-03T07:33:45;3.77;;;3.20;;
4839;SDS011;2434;48.486;7.964;2023-04-03T07:36:14;2.87;;;2.50;;
4839;SDS011;2434;48.486;7.964;2023-04-03T07:38:45;4.43;;;2.93;;
4839;SDS011;2434;48.486;7.964;2023-04-03T07:41:14;2.93;;;2.60;;
4839;SDS011;2434;48.486;7.964;2023-04-03T07:43:44;2.20;;;1.73;;
4839;SDS011;2434;48.486;7.964;2023-04-03T07:46:13;3.10;;;2.33;;
4839;SDS011;2434;48.486;7.964;2023-04-03T07:48:41;4.33;;;2.70;;
4839;SDS011;2434;48.486;7.964;2023-04-03T07:51:09;5.13;;;2.13;;
4839;SDS011;2434;48.486;7.964;2023-04-03T07:53:37;7.60;;;2.50;;
4839;SDS011;2434;48.486;7.964;2023-04-03T07:56:07;2.93;;;2.20;;
4839;SDS011;2434;48.486;7.964;2023-04-03T07:58:36;3.77;;;2.30;;
4839;SDS011;2434;48.486;7.964;2023-04-03T08:01:04;3.23;;;2.40;;
4839;SDS011;2434;48.486;7.964;2023-04-03T08:03:32;3.70;;;2.43;;
4839;SDS011;2434;48.486;7.964;2023-04-03T08:06:02;3.10;;;2.10;;
4839;SDS011;2434;48.486;7.964;2023-04-03T08:08:32;1.97;;;1.77;;
4839;SDS011;2434;48.486;7.964;2023-04-03T08:11:01;5.13;;;2.40;;
4839;SDS011;2434;48.486;7.964;2023-04-03T08:13:33;2.20;;;2.00;;
4839;SDS011;2434;48.486;7.964;2023-04-03T08:16:09;4.47;;;2.63;;
4839;SDS011;2434;48.486;7.964;2023-04-03T08:18:38;2.30;;;1.87;;
4839;SDS011;2434;48.486;7.964;2023-04-03T08:21:07;2.43;;;2.17;;
4839;SDS011;2434;48.486;7.964;2023-04-03T08:23:36;3.50;;;2.30;;
4839;SDS011;2434;48.486;7.964;2023-04-03T08:26:06;3.50;;;1.87;;
4839;SDS011;2434;48.486;7.964;2023-04-03T08:28:36;4.17;;;2.07;;
4839;SDS011;2434;48.486;7.964;2023-04-03T08:31:06;3.87;;;2.00;;
4839;SDS011;2434;48.486;7.964;2023-04-03T08:33:37;4.30;;;2.13;;
4839;SDS011;2434;48.486;7.964;2023-04-03T08:36:07;2.27;;;1.80;;
4839;SDS011;2434;48.486;7.964;2023-04-03T08:38:43;2.40;;;1.93;;
4839;SDS011;2434;48.486;7.964;2023-04-03T08:41:13;2.13;;;1.77;;
4839;SDS011;2434;48.486;7.964;2023-04-03T08:43:51;3.10;;;2.80;;
4839;SDS011;2434;48.486;7.964;2023-04-03T08:46:26;2.00;;;1.77;;
4839;SDS011;2434;48.486;7.964;2023-04-03T08:49:07;3.50;;;1.97;;
4839;SDS011;2434;48.486;7.964;2023-04-03T08:51:42;3.87;;;2.23;;
4839;SDS011;2434;48.486;7.964;2023-04-03T08:54:16;2.80;;;1.90;;
4839;SDS011;2434;48.486;7.964;2023-04-03T08:57:01;3.00;;;2.27;;
4839;SDS011;2434;48.486;7.964;2023-04-03T08:59:34;2.43;;;1.93;;
4839;SDS011;2434;48.486;7.964;2023-04-03T09:02:12;2.17;;;1.97;;
4839;SDS011;2434;48.486;7.964;2023-04-03T09:04:56;3.13;;;1.90;;
4839;SDS011;2434;48.486;7.964;2023-04-03T09:07:30;1.87;;;1.50;;
4839;SDS011;2434;48.486;7.964;2023-04-03T09:10:03;3.03;;;1.57;;
4839;SDS011;2434;48.486;7.964;2023-04-03T09:12:33;2.57;;;2.00;;
4839;SDS011;2434;48.486;7.964;2023-04-03T09:15:09;2.83;;;2.00;;
4839;SDS011;2434;48.486;7.964;2023-04-03T09:17:53;2.20;;;1.80;;
4839;SDS011;2434;48.486;7.964;2023-04-03T09:20:30;2.90;;;1.70;;
4839;SDS011;2434;48.486;7.964;2023-04-03T09:23:11;4.73;;;1.90;;
4839;SDS011;2434;48.486;7.964;2023-04-03T09:25:44;2.33;;;2.07;;
4839;SDS011;2434;48.486;7.964;2023-04-03T09:28:13;1.80;;;1.70;;
4839;SDS011;2434;48.486;7.964;2023-04-03T09:30:42;3.13;;;2.10;;
4839;SDS011;2434;48.486;7.964;2023-04-03T09:33:11;2.70;;;1.87;;
4839;SDS011;2434;48.486;7.964;2023-04-03T09:35:40;2.80;;;1.93;;
4839;SDS011;2434;48.486;7.964;2023-04-03T09:38:15;2.30;;;1.80;;
4839;SDS011;2434;48.486;7.964;2023-04-03T09:40:46;3.20;;;1.90;;
4839;SDS011;2434;48.486;7.964;2023-04-03T09:46:17;4.13;;;2.20;;
4839;SDS011;2434;48.486;7.964;2023-04-03T09:48:55;2.53;;;1.63;;
4839;SDS011;2434;48.486;7.964;2023-04-03T09:51:35;1.90;;;1.70;;
4839;SDS011;2434;48.486;7.964;2023-04-03T09:54:23;3.17;;;1.90;;
4839;SDS011;2434;48.486;7.964;2023-04-03T09:57:06;3.50;;;2.27;;
4839;SDS011;2434;48.486;7.964;2023-04-03T09:59:37;2.20;;;2.00;;
4839;SDS011;2434;48.486;7.964;2023-04-03T10:02:22;2.40;;;1.87;;
4839;SDS011;2434;48.486;7.964;2023-04-03T10:05:01;2.80;;;2.00;;
4839;SDS011;2434;48.486;7.964;2023-04-03T10:07:33;2.60;;;1.93;;
4839;SDS011;2434;48.486;7.964;2023-04-03T10:10:14;2.40;;;1.93;;
4839;SDS011;2434;48.486;7.964;2023-04-03T10:12:46;3.47;;;2.17;;
4839;SDS011;2434;48.486;7.964;2023-04-03T10:15:15;5.77;;;2.33;;
4839;SDS011;2434;48.486;7.964;2023-04-03T10:17:50;3.43;;;1.80;;
4839;SDS011;2434;48.486;7.964;2023-04-03T10:20:29;4.03;;;2.27;;
4839;SDS011;2434;48.486;7.964;2023-04-03T10:23:10;2.47;;;1.97;;
4839;SDS011;2434;48.486;7.964;2023-04-03T10:25:48;2.97;;;1.90;;
4839;SDS011;2434;48.486;7.964;2023-04-03T10:28:30;2.07;;;1.87;;
4839;SDS011;2434;48.486;7.964;2023-04-03T10:31:03;2.43;;;1.80;;
4839;SDS011;2434;48.486;7.964;2023-04-03T10:33:46;2.17;;;1.80;;
4839;SDS011;2434;48.486;7.964;2023-04-03T10:36:25;2.57;;;2.00;;
4839;SDS011;2434;48.486;7.964;2023-04-03T10:39:05;2.90;;;2.03;;
4839;SDS011;2434;48.486;7.964;2023-04-03T10:41:43;2.57;;;2.20;;
4839;SDS011;2434;48.486;7.964;2023-04-03T10:44:36;2.40;;;2.20;;
4839;SDS011;2434;48.486;7.964;2023-04-03T10:47:19;3.43;;;2.63;;
4839;SDS011;2434;48.486;7.964;2023-04-03T10:49:53;3.00;;;2.10;;
4839;SDS011;2434;48.486;7.964;2023-04-03T10:52:30;2.47;;;2.10;;
4839;SDS011;2434;48.486;7.964;2023-04-03T10:55:09;4.50;;;1.70;;
4839;SDS011;2434;48.486;7.964;2023-04-03T10:57:52;5.90;;;2.50;;
4839;SDS011;2434;48.486;7.964;2023-04-03T11:00:25;2.60;;;1.70;;
4839;SDS011;2434;48.486;7.964;2023-04-03T11:03:05;3.57;;;2.17;;
4839;SDS011;2434;48.486;7.964;2023-04-03T11:05:39;3.13;;;2.07;;
4839;SDS011;2434;48.486;7.964;2023-04-03T11:08:13;3.97;;;2.57;;
4839;SDS011;2434;48.486;7.964;2023-04-03T11:10:49;4.50;;;2.67;;
4839;SDS011;2434;48.486;7.964;2023-04-03T11:13:19;2.97;;;2.10;;
4839;SDS011;2434;48.486;7.964;2023-04-03T11:15:52;1.93;;;1.70;;
4839;SDS011;2434;48.486;7.964;2023-04-03T11:18:22;4.73;;;2.00;;
4839;SDS011;2434;48.486;7.964;2023-04-03T11:20:59;4.10;;;2.30;;
4839;SDS011;2434;48.486;7.964;2023-04-03T11:23:31;2.30;;;1.60;;
4839;SDS011;2434;48.486;7.964;2023-04-03T11:26:15;2.53;;;2.20;;
4839;SDS011;2434;48.486;7.964;2023-04-03T11:28:51;2.10;;;1.90;;
4839;SDS011;2434;48.486;7.964;2023-04-03T11:31:33;3.50;;;2.20;;
4839;SDS011;2434;48.486;7.964;2023-04-03T11:34:14;3.70;;;1.80;;
4839;SDS011;2434;48.486;7.964;2023-04-03T11:36:56;3.30;;;2.10;;
4839;SDS011;2434;48.486;7.964;2023-04-03T11:39:28;3.20;;;2.07;;
4839;SDS011;2434;48.486;7.964;2023-04-03T11:42:13;3.23;;;1.97;;
4839;SDS011;2434;48.486;7.964;2023-04-03T11:44:43;3.07;;;1.73;;
4839;SDS011;2434;48.486;7.964;2023-04-03T11:47:12;2.60;;;1.80;;
4839;SDS011;2434;48.486;7.964;2023-04-03T11:53:27;3.30;;;2.43;;
4839;SDS011;2434;48.486;7.964;2023-04-03T11:56:02;3.33;;;2.30;;
4839;SDS011;2434;48.486;7.964;2023-04-03T11:58:32;3.43;;;2.40;;
4839;SDS011;2434;48.486;7.964;2023-04-03T12:01:08;2.93;;;2.13;;
4839;SDS011;2434;48.486;7.964;2023-04-03T12:09:58;4.73;;;2.57;;
4839;SDS011;2434;48.486;7.964;2023-04-03T12:12:36;2.93;;;2.30;;
4839;SDS011;2434;48.486;7.964;2023-04-03T12:15:21;3.30;;;2.30;;
4839;SDS011;2434;48.486;7.964;2023-04-03T12:17:51;2.70;;;1.77;;
4839;SDS011;2434;48.486;7.964;2023-04-03T12:23:30;2.20;;;1.93;;
4839;SDS011;2434;48.486;7.964;2023-04-03T12:26:05;3.50;;;2.00;;
4839;SDS011;2434;48.486;7.964;2023-04-03T12:28:48;2.17;;;1.87;;
4839;SDS011;2434;48.486;7.964;2023-04-03T12:31:19;4.43;;;2.57;;
4839;SDS011;2434;48.486;7.964;2023-04-03T12:33:57;2.80;;;2.23;;
4839;SDS011;2434;48.486;7.964;2023-04-03T12:36:42;2.87;;;1.97;;
4839;SDS011;2434;48.486;7.964;2023-04-03T12:39:33;3.77;;;2.13;;
4839;SDS011;2434;48.486;7.964;2023-04-03T12:42:34;3.97;;;2.27;;
4839;SDS011;2434;48.486;7.964;2023-04-03T12:45:15;5.27;;;2.60;;
4839;SDS011;2434;48.486;7.964;2023-04-03T12:47:47;3.10;;;2.10;;
4839;SDS011;2434;48.486;7.964;2023-04-03T12:50:22;6.93;;;2.70;;
4839;SDS011;2434;48.486;7.964;2023-04-03T12:52:55;4.60;;;2.23;;
4839;SDS011;2434;48.486;7.964;2023-04-03T12:55:26;5.00;;;2.17;;
4839;SDS011;2434;48.486;7.964;2023-04-03T12:57:56;2.60;;;1.77;;
4839;SDS011;2434;48.486;7.964;2023-04-03T13:00:28;5.80;;;2.57;;
4839;SDS011;2434;48.486;7.964;2023-04-03T13:03:00;12.10;;;2.20;;
4839;SDS011;2434;48.486;7.964;2023-04-03T13:05:30;1.90;;;1.70;;
4839;SDS011;2434;48.486;7.964;2023-04-03T13:08:03;3.50;;;1.77;;
4839;SDS011;2434;48.486;7.964;2023-04-03T13:10:42;3.87;;;2.10;;
4839;SDS011;2434;48.486;7.964;2023-04-03T13:13:16;3.77;;;2.00;;
4839;SDS011;2434;48.486;7.964;2023-04-03T13:15:46;3.17;;;2.33;;
4839;SDS011;2434;48.486;7.964;2023-04-03T13:18:23;3.77;;;2.03;;
4839;SDS011;2434;48.486;7.964;2023-04-03T13:20:53;4.90;;;1.80;;
4839;SDS011;2434;48.486;7.964;2023-04-03T13:23:27;3.40;;;2.00;;
4839;SDS011;2434;48.486;7.964;2023-04-03T13:25:56;4.03;;;2.10;;
4839;SDS011;2434;48.486;7.964;2023-04-03T13:28:31;2.20;;;1.90;;
4839;SDS011;2434;48.486;7.964;2023-04-03T13:31:05;3.30;;;1.77;;
4839;SDS011;2434;48.486;7.964;2023-04-03T13:33:36;3.87;;;1.97;;
4839;SDS011;2434;48.486;7.964;2023-04-03T13:36:06;2.63;;;1.90;;
4839;SDS011;2434;48.486;7.964;2023-04-03T13:38:41;3.33;;;1.87;;
4839;SDS011;2434;48.486;7.964;2023-04-03T13:41:21;3.47;;;1.97;;
4839;SDS011;2434;48.486;7.964;2023-04-03T13:43:54;4.40;;;2.00;;
4839;SDS011;2434;48.486;7.964;2023-04-03T13:46:34;4.03;;;1.90;;
4839;SDS011;2434;48.486;7.964;2023-04-03T13:49:09;4.37;;;2.23;;
4839;SDS011;2434;48.486;7.964;2023-04-03T13:51:46;3.27;;;1.87;;
4839;SDS011;2434;48.486;7.964;2023-04-03T13:54:30;3.07;;;1.77;;
4839;SDS011;2434;48.486;7.964;2023-04-03T13:57:01;4.10;;;2.00;;
4839;SDS011;2434;48.486;7.964;2023-04-03T13:59:31;3.10;;;1.80;;
4839;SDS011;2434;48.486;7.964;2023-04-03T14:02:11;2.20;;;1.93;;
4839;SDS011;2434;48.486;7.964;2023-04-03T14:04:46;2.17;;;1.80;;
4839;SDS011;2434;48.486;7.964;2023-04-03T14:07:19;4.03;;;1.70;;
4839;SDS011;2434;48.486;7.964;2023-04-03T14:09:48;4.67;;;1.80;;
4839;SDS011;2434;48.486;7.964;2023-04-03T14:12:17;3.73;;;2.00;;
4839;SDS011;2434;48.486;7.964;2023-04-03T14:14:59;3.33;;;1.80;;
4839;SDS011;2434;48.486;7.964;2023-04-03T14:17:28;7.47;;;1.67;;
4839;SDS011;2434;48.486;7.964;2023-04-03T14:19:58;3.30;;;1.70;;
4839;SDS011;2434;48.486;7.964;2023-04-03T14:22:28;4.17;;;2.00;;
4839;SDS011;2434;48.486;7.964;2023-04-03T14:24:57;4.50;;;2.10;;
4839;SDS011;2434;48.486;7.964;2023-04-03T14:27:27;3.50;;;1.70;;
4839;SDS011;2434;48.486;7.964;2023-04-03T14:29:57;2.37;;;1.70;;
4839;SDS011;2434;48.486;7.964;2023-04-03T14:32:29;4.00;;;1.90;;
4839;SDS011;2434;48.486;7.964;2023-04-03T14:34:57;3.07;;;1.80;;
4839;SDS011;2434;48.486;7.964;2023-04-03T14:37:28;4.40;;;1.70;;
4839;SDS011;2434;48.486;7.964;2023-04-03T14:39:59;2.63;;;1.80;;
4839;SDS011;2434;48.486;7.964;2023-04-03T14:42:31;4.17;;;1.90;;
4839;SDS011;2434;48.486;7.964;2023-04-03T14:45:04;3.93;;;1.87;;
4839;SDS011;2434;48.486;7.964;2023-04-03T14:47:34;2.47;;;1.70;;
4839;SDS011;2434;48.486;7.964;2023-04-03T14:50:07;2.40;;;1.47;;
4839;SDS011;2434;48.486;7.964;2023-04-03T14:52:39;4.20;;;2.03;;
4839;SDS011;2434;48.486;7.964;2023-04-03T14:55:08;2.90;;;1.70;;
4839;SDS011;2434;48.486;7.964;2023-04-03T14:57:39;4.30;;;1.77;;
4839;SDS011;2434;48.486;7.964;2023-04-03T15:00:11;4.10;;;1.40;;
4839;SDS011;2434;48.486;7.964;2023-04-03T15:02:43;5.37;;;1.43;;
4839;SDS011;2434;48.486;7.964;2023-04-03T15:05:13;5.93;;;1.70;;
4839;SDS011;2434;48.486;7.964;2023-04-03T15:07:42;4.53;;;1.97;;
4839;SDS011;2434;48.486;7.964;2023-04-03T15:10:15;1.97;;;1.63;;
4839;SDS011;2434;48.486;7.964;2023-04-03T15:12:45;4.63;;;1.63;;
4839;SDS011;2434;48.486;7.964;2023-04-03T15:15:16;3.50;;;1.90;;
4839;SDS011;2434;48.486;7.964;2023-04-03T15:17:48;5.00;;;1.70;;
4839;SDS011;2434;48.486;7.964;2023-04-03T15:20:21;2.27;;;1.57;;
4839;SDS011;2434;48.486;7.964;2023-04-03T15:22:51;3.30;;;1.70;;
4839;SDS011;2434;48.486;7.964;2023-04-03T15:25:19;3.30;;;1.53;;
4839;SDS011;2434;48.486;7.964;2023-04-03T15:27:48;2.70;;;1.93;;
4839;SDS011;2434;48.486;7.964;2023-04-03T15:30:18;4.60;;;2.10;;
4839;SDS011;2434;48.486;7.964;2023-04-03T15:32:47;2.90;;;2.07;;
4839;SDS011;2434;48.486;7.964;2023-04-03T15:35:15;2.87;;;2.10;;
4839;SDS011;2434;48.486;7.964;2023-04-03T15:37:44;6.80;;;2.70;;
4839;SDS011;2434;48.486;7.964;2023-04-03T15:40:12;4.53;;;3.30;;
4839;SDS011;2434;48.486;7.964;2023-04-03T15:42:41;3.27;;;2.27;;
4839;SDS011;2434;48.486;7.964;2023-04-03T15:45:09;2.97;;;1.63;;
4839;SDS011;2434;48.486;7.964;2023-04-03T15:47:39;4.83;;;2.23;;
4839;SDS011;2434;48.486;7.964;2023-04-03T15:50:07;4.23;;;1.53;;
4839;SDS011;2434;48.486;7.964;2023-04-03T15:52:36;2.20;;;1.43;;
4839;SDS011;2434;48.486;7.964;2023-04-03T15:55:05;3.30;;;1.93;;
4839;SDS011;2434;48.486;7.964;2023-04-03T15:57:33;3.23;;;1.90;;
4839;SDS011;2434;48.486;7.964;2023-04-03T16:00:01;3.27;;;1.77;;
4839;SDS011;2434;48.486;7.964;2023-04-03T16:02:32;2.83;;;1.90;;